MSC Armonia — H8EW — position and weather

sailwx.info

Track history (hours):
 
Tides and Currents Weather Stations Pressure Air Temp Water Temp Dewpoint Dewpoint Depression Visibility Wind Speed Wind Dir Waves Ship Positions

MSC Armonia

Operator: Mediterranean Shipping Company

Last reported at 2017-Jun-26 12:00 UTC. Time now 2017-Jun-26 12:04 UTC.
Position N 39°33' E 002°39'.

Length 275 m; draft 6.8 m.

Type: Ship. MMSI: 357281000.

Date/timePositionNaut miles runAvg speedWind from/ knotsBaromVisibWave heightAir tempDewpointWater temp
2017-Jun-26 12:00N 39°33' E 002°39'714.0
2017-Jun-26 11:30N 39°26' E 002°34'612.3
2017-Jun-26 11:00N 39°26' E 002°27'812.8
2017-Jun-26 10:24N 39°31' E 002°18'613.1
2017-Jun-26 09:58N 39°36' E 002°15'813.7
2017-Jun-26 09:21N 39°43' E 002°20'514.0
2017-Jun-26 09:00N 39°47' E 002°23'714.6
2017-Jun-26 08:30N 39°53' E 002°29'714.5
2017-Jun-26 08:00N 39°60' E 002°34'714.6
2017-Jun-26 07:30N 40°06' E 002°39'714.5
2017-Jun-26 07:00N 40°12' E 002°44'714.5
2017-Jun-26 06:30N 40°18' E 002°49'714.4
2017-Jun-26 06:00N 40°24' E 002°54'714.4
2017-Jun-26 05:30N 40°30' E 002°58'714.4
2017-Jun-26 05:00N 40°37' E 003°03'714.6
2017-Jun-26 04:30N 40°43' E 003°09'714.3
2017-Jun-26 04:00N 40°49' E 003°13'714.0
2017-Jun-26 03:30N 40°55' E 003°19'714.0
2017-Jun-26 02:57N 41°01' E 003°24'3914.3
2017-Jun-26 00:14N 41°35' E 003°50'614.6
2017-Jun-25 23:48N 41°40' E 003°55'414.6
2017-Jun-25 23:30N 41°44' E 003°58'714.8
2017-Jun-25 23:00N 41°50' E 004°03'815.0
2017-Jun-25 22:26N 41°57' E 004°09'149 6.5
2017-Jun-24 23:24N 43°12' E 007°03'615.4
2017-Jun-24 23:00N 43°15' E 007°11'815.6
2017-Jun-24 22:30N 43°20' E 007°20'6015.8
2017-Jun-24 18:43N 43°50' E 008°31'316.2
2017-Jun-24 18:30N 43°53' E 008°34'816.1
2017-Jun-24 18:00N 43°59' E 008°40'816.1
2017-Jun-24 17:30N 44°07' E 008°45'816.1
2017-Jun-24 17:00N 44°14' E 008°51'815.7
2017-Jun-24 16:30N 44°21' E 008°55'4 8.1
2017-Jun-24 16:00N 44°25' E 008°55'0 0.1
2017-Jun-24 15:25N 44°25' E 008°55'0 0.0
2017-Jun-24 14:58N 44°25' E 008°55'0 0.0
2017-Jun-24 13:52N 44°25' E 008°55'0 0.0
2017-Jun-24 13:28N 44°25' E 008°55'0 0.0
2017-Jun-24 12:52N 44°25' E 008°55'0 0.0
2017-Jun-24 12:28N 44°25' E 008°55'0 0.0
2017-Jun-24 11:52N 44°25' E 008°55'0 0.0
2017-Jun-24 11:28N 44°25' E 008°55'0 0.0
2017-Jun-24 10:55N 44°25' E 008°55'0 0.0
2017-Jun-24 10:25N 44°25' E 008°55'0 0.0
2017-Jun-24 09:55N 44°25' E 008°55'0 0.0
2017-Jun-24 09:25N 44°25' E 008°55'0 0.0
2017-Jun-24 08:55N 44°25' E 008°55'0 0.0
2017-Jun-24 08:22N 44°25' E 008°55'0 0.0
2017-Jun-24 07:58N 44°25' E 008°55'0 0.0
2017-Jun-24 07:28N 44°25' E 008°55'0 0.0
2017-Jun-24 06:58N 44°25' E 008°55'0 0.0
2017-Jun-24 06:28N 44°25' E 008°55'0 0.0
2017-Jun-24 05:58N 44°25' E 008°55'2 3.6
2017-Jun-24 05:30N 44°23' E 008°56'5 9.8
2017-Jun-24 05:00N 44°19' E 008°59'510.3
2017-Jun-24 04:30N 44°14' E 009°02'5 9.6
2017-Jun-24 04:00N 44°10' E 009°04'5 9.6
2017-Jun-24 03:30N 44°05' E 009°06'5 9.4
2017-Jun-24 03:00N 44°00' E 009°07'4 8.7
2017-Jun-24 02:30N 43°57' E 009°03'4 8.8
2017-Jun-24 02:00N 43°56' E 008°57'4 8.5
2017-Jun-24 01:30N 43°55' E 008°52'4 8.4
2017-Jun-24 01:00N 43°53' E 008°46'4 7.9
2017-Jun-24 00:30N 43°50' E 008°43'5 9.6
2017-Jun-23 23:59N 43°45' E 008°44'510.0
2017-Jun-23 23:30N 43°41' E 008°47'713.4
2017-Jun-23 23:00N 43°36' E 008°53'815.9
2017-Jun-23 22:30N 43°33' E 009°03'816.0
2017-Jun-23 22:00N 43°33' E 009°14'815.2
2017-Jun-23 21:30N 43°33' E 009°25'714.6
2017-Jun-23 21:00N 43°33' E 009°35'612.1
2017-Jun-23 20:30N 43°33' E 009°43'4 7.6
2017-Jun-23 20:00N 43°32' E 009°48'4 7.4
2017-Jun-23 19:30N 43°32' E 009°53'4 7.1
2017-Jun-23 19:01N 43°31' E 009°58'4 7.3
2017-Jun-23 18:31N 43°30' E 010°03'4 7.2
2017-Jun-23 18:00N 43°30' E 010°08'4 7.3
2017-Jun-23 17:30N 43°31' E 010°13'4 7.6
2017-Jun-23 17:00N 43°33' E 010°17'0 0.8
2017-Jun-23 16:30N 43°33' E 010°18'0 0.0
2017-Jun-23 16:00N 43°33' E 010°18'0 0.0
2017-Jun-23 15:30N 43°33' E 010°18'0 0.0
2017-Jun-23 15:00N 43°33' E 010°18'0 0.0
2017-Jun-23 13:54N 43°33' E 010°18'0 0.0
2017-Jun-23 13:30N 43°33' E 010°18'0 0.0
2017-Jun-23 12:51N 43°33' E 010°18'0 0.0
2017-Jun-23 12:30N 43°33' E 010°18'0 0.0
2017-Jun-23 12:00N 43°33' E 010°18'0 0.0
2017-Jun-23 11:30N 43°33' E 010°18'0 0.0
2017-Jun-23 11:00N 43°33' E 010°18'0 0.0
2017-Jun-23 10:30N 43°33' E 010°18'0 0.0
2017-Jun-23 10:00N 43°33' E 010°18'0 0.0
2017-Jun-23 09:30N 43°33' E 010°18'0 0.0
2017-Jun-23 08:57N 43°33' E 010°18'0 0.0
2017-Jun-23 08:30N 43°33' E 010°18'0 0.0
2017-Jun-23 08:00N 43°33' E 010°18'0 0.0
2017-Jun-23 07:30N 43°33' E 010°18'0 0.0
2017-Jun-23 07:00N 43°33' E 010°18'0 0.0
2017-Jun-23 06:30N 43°33' E 010°18'0 0.0
2017-Jun-23 06:00N 43°33' E 010°18'0 0.0
2017-Jun-23 05:30N 43°33' E 010°18'2 4.6
2017-Jun-23 04:57N 43°31' E 010°15'510.0
2017-Jun-23 04:30N 43°27' E 010°12'712.8
2017-Jun-23 03:55N 43°20' E 010°09'512.5
2017-Jun-23 03:31N 43°16' E 010°07'612.9
2017-Jun-23 03:01N 43°09' E 010°04'1212.7
2017-Jun-23 02:03N 42°58' E 009°60'212.7
2017-Jun-23 01:54N 42°56' E 009°59'912.8
2017-Jun-23 01:11N 42°47' E 009°56'313.0
2017-Jun-23 00:55N 42°44' E 009°55'1613.1
2017-Jun-22 23:45N 42°28' E 009°53'812.9
2017-Jun-22 23:06N 42°20' E 009°52'212.9
2017-Jun-22 22:57N 42°18' E 009°52'613.1
2017-Jun-22 22:31N 42°12' E 009°51'713.2
2017-Jun-22 21:57N 42°05' E 009°51'3513.2
2017-Jun-22 19:16N 41°30' E 009°47'413.1
2017-Jun-22 18:59N 41°26' E 009°46'28 2.1
2017-Jun-22 05:37N 40°58' E 009°42'1114.0
2017-Jun-22 04:51N 41°08' E 009°43'6813.7
2017-Jun-21 23:54N 41°11' E 008°13'715.8
2017-Jun-21 23:29N 41°08' E 008°05'23116.1
2017-Jun-21 09:08N 39°19' E 003°38'216.5
2017-Jun-21 09:00N 39°18' E 003°35'816.5
2017-Jun-21 08:30N 39°15' E 003°26'816.5
2017-Jun-21 08:00N 39°11' E 003°16'816.4
2017-Jun-21 07:30N 39°07' E 003°07'816.2
2017-Jun-21 07:00N 39°04' E 002°57'816.1
2017-Jun-21 06:30N 39°03' E 002°47'816.0
2017-Jun-21 06:00N 39°02' E 002°37'815.9
2017-Jun-21 05:30N 39°00' E 002°27'816.1
2017-Jun-21 05:00N 38°59' E 002°17'816.2
2017-Jun-21 04:30N 38°58' E 002°06'816.2
2017-Jun-21 04:00N 38°58' E 001°56'816.2
2017-Jun-21 03:30N 38°56' E 001°46'816.1
2017-Jun-21 03:00N 38°55' E 001°36'6 0.3
2017-Jun-20 05:56N 38°54' E 001°27'4 8.4
2017-Jun-20 05:28N 38°55' E 001°32'4 8.5
2017-Jun-20 05:00N 38°57' E 001°36'5 8.9
2017-Jun-20 04:30N 38°59' E 001°42'4 8.9
2017-Jun-20 04:00N 39°01' E 001°46'4 8.8
2017-Jun-20 03:30N 39°04' E 001°51'4 8.7
2017-Jun-20 03:00N 39°06' E 001°56'4 8.7
2017-Jun-20 02:30N 39°08' E 002°01'4 8.2
2017-Jun-20 02:00N 39°11' E 002°05'4 8.4
2017-Jun-20 01:30N 39°13' E 002°10'4 8.6
2017-Jun-20 01:00N 39°15' E 002°14'4 9.1
2017-Jun-20 00:30N 39°18' E 002°19'611.3
2017-Jun-20 00:00N 39°21' E 002°25'611.7
2017-Jun-19 23:30N 39°25' E 002°31'611.7
2017-Jun-19 23:01N 39°29' E 002°36'5 9.8
2017-Jun-19 22:30N 39°33' E 002°39'0 0.6
2017-Jun-19 21:58N 39°33' E 002°38'0 0.0
2017-Jun-19 21:28N 39°33' E 002°38'0 0.0
2017-Jun-19 20:58N 39°33' E 002°38'0 0.0
2017-Jun-19 20:28N 39°33' E 002°38'0 0.0
2017-Jun-19 19:58N 39°33' E 002°38'0 0.0
2017-Jun-19 19:28N 39°33' E 002°38'0 0.0
2017-Jun-19 18:58N 39°33' E 002°38'0 0.0
2017-Jun-19 18:28N 39°33' E 002°38'0 0.0
2017-Jun-19 17:58N 39°33' E 002°38'0 0.0
2017-Jun-19 17:28N 39°33' E 002°38'0 0.0
2017-Jun-19 16:58N 39°33' E 002°38'0 0.0
2017-Jun-19 16:28N 39°33' E 002°38'0 0.0
2017-Jun-19 15:58N 39°33' E 002°38'0 0.0
2017-Jun-19 15:28N 39°33' E 002°38'0 0.0
2017-Jun-19 14:58N 39°33' E 002°38'0 0.0
2017-Jun-19 14:28N 39°33' E 002°38'0 0.0
2017-Jun-19 13:28N 39°33' E 002°38'0 0.0
2017-Jun-19 13:00N 39°33' E 002°38'0 0.0
2017-Jun-19 12:30N 39°33' E 002°38'1 1.7
2017-Jun-19 12:00N 39°33' E 002°39'714.4
2017-Jun-19 11:30N 39°27' E 002°34'713.1
2017-Jun-19 11:00N 39°26' E 002°25'713.2
2017-Jun-19 10:26N 39°31' E 002°18'612.6
2017-Jun-19 10:00N 39°36' E 002°16'713.7
2017-Jun-19 09:30N 39°42' E 002°20'713.9
2017-Jun-19 09:00N 39°48' E 002°25'714.4
2017-Jun-19 08:30N 39°54' E 002°30'714.2
2017-Jun-19 08:00N 40°01' E 002°35'714.4
2017-Jun-19 07:30N 40°07' E 002°40'714.5
2017-Jun-19 07:00N 40°13' E 002°45'714.6
2017-Jun-19 06:30N 40°19' E 002°49'714.2
2017-Jun-19 06:00N 40°25' E 002°54'714.0
2017-Jun-19 05:30N 40°32' E 002°58'714.1
2017-Jun-19 05:00N 40°37' E 003°04'714.4
2017-Jun-19 04:30N 40°43' E 003°09'814.5
2017-Jun-19 03:57N 40°50' E 003°14'614.2
2017-Jun-19 03:30N 40°56' E 003°19'714.2
2017-Jun-19 03:00N 41°02' E 003°24'913.9
2017-Jun-19 02:21N 41°09' E 003°30'514.3
2017-Jun-19 02:00N 41°14' E 003°33'714.4
2017-Jun-19 01:30N 41°20' E 003°38'714.5
2017-Jun-19 01:00N 41°26' E 003°43'714.5
2017-Jun-19 00:30N 41°32' E 003°49'714.3
2017-Jun-19 00:00N 41°38' E 003°54'1914.2
2017-Jun-18 22:41N 41°54' E 004°07'2114.1
2017-Jun-18 21:11N 42°12' E 004°21'414.2
2017-Jun-18 20:53N 42°16' E 004°24'3114.4
2017-Jun-18 18:42N 42°43' E 004°46'2914.7
2017-Jun-18 16:43N 43°08' E 005°07'11 0.9
2017-Jun-18 04:44N 43°16' E 005°16'7814.2
2017-Jun-17 23:14N 43°12' E 007°03'416.8
2017-Jun-17 23:00N 43°14' E 007°07'1016.7
2017-Jun-17 22:23N 43°19' E 007°19'616.6
2017-Jun-17 22:00N 43°23' E 007°27'4316.5
2017-Jun-17 19:26N 43°44' E 008°17'716.1
2017-Jun-17 19:00N 43°48' E 008°25'815.4
2017-Jun-17 18:30N 43°53' E 008°33'815.7
2017-Jun-17 18:00N 43°60' E 008°39'815.8
2017-Jun-17 17:30N 44°07' E 008°44'815.9
2017-Jun-17 17:00N 44°14' E 008°50'815.8
2017-Jun-17 16:30N 44°20' E 008°55'4 7.7
2017-Jun-17 15:57N 44°25' E 008°55'0 0.0
2017-Jun-17 15:27N 44°25' E 008°55'0 0.0
2017-Jun-17 14:57N 44°25' E 008°55'0 0.0
2017-Jun-17 13:57N 44°25' E 008°55'0 0.0
2017-Jun-17 13:27N 44°25' E 008°55'0 0.0
2017-Jun-17 13:00N 44°25' E 008°55'0 0.0
2017-Jun-17 12:30N 44°25' E 008°55'0 0.0
2017-Jun-17 12:00N 44°25' E 008°55'0 0.0
2017-Jun-17 11:30N 44°25' E 008°55'0 0.0
2017-Jun-17 11:00N 44°25' E 008°55'0 0.0
2017-Jun-17 10:30N 44°25' E 008°55'0 0.0
2017-Jun-17 10:00N 44°25' E 008°55'0 0.0
2017-Jun-17 09:30N 44°25' E 008°55'0 0.0
2017-Jun-17 09:00N 44°25' E 008°55'0 0.0
2017-Jun-17 08:30N 44°25' E 008°55'0 0.0
2017-Jun-17 08:00N 44°25' E 008°55'0 0.0
2017-Jun-17 07:30N 44°25' E 008°55'0 0.0
2017-Jun-17 07:00N 44°25' E 008°55'0 0.0
2017-Jun-17 06:30N 44°25' E 008°55'0 0.0
2017-Jun-17 05:57N 44°25' E 008°55'1 1.3
2017-Jun-17 05:31N 44°24' E 008°55'5 9.2
2017-Jun-17 05:00N 44°20' E 008°59'611.5
2017-Jun-17 04:30N 44°15' E 009°01'611.2
2017-Jun-17 04:00N 44°09' E 009°04'5 9.4
2017-Jun-17 03:30N 44°05' E 009°06'5 9.4
2017-Jun-17 03:00N 44°01' E 009°07'5 9.5
2017-Jun-17 02:30N 43°56' E 009°10'5 9.2
2017-Jun-17 02:00N 43°52' E 009°12'4 8.7
2017-Jun-17 01:30N 43°48' E 009°14'4 8.6
2017-Jun-17 01:00N 43°43' E 009°15'4 8.8
2017-Jun-17 00:30N 43°39' E 009°17'4 8.9
2017-Jun-17 00:00N 43°35' E 009°19'4 7.9
2017-Jun-16 23:30N 43°33' E 009°24'4 8.6
2017-Jun-16 23:00N 43°33' E 009°29'4 8.5
2017-Jun-16 22:30N 43°33' E 009°35'4 8.2
2017-Jun-16 22:00N 43°32' E 009°41'4 8.1
2017-Jun-16 21:30N 43°32' E 009°47'4 8.2
2017-Jun-16 21:00N 43°31' E 009°52'4 8.2
2017-Jun-16 20:30N 43°31' E 009°58'4 8.2
2017-Jun-16 20:00N 43°30' E 010°03'4 8.2
2017-Jun-16 19:30N 43°30' E 010°09'4 8.3
2017-Jun-16 19:00N 43°32' E 010°14'3 5.4
2017-Jun-16 18:28N 43°33' E 010°18'0 0.0
2017-Jun-16 17:58N 43°33' E 010°18'0 0.0
2017-Jun-16 17:28N 43°33' E 010°18'0 0.0
2017-Jun-16 16:58N 43°33' E 010°18'0 0.0
2017-Jun-16 16:28N 43°33' E 010°18'0 0.0
2017-Jun-16 15:58N 43°33' E 010°18'0 0.0
2017-Jun-16 15:28N 43°33' E 010°18'0 0.0
2017-Jun-16 14:58N 43°33' E 010°18'0 0.0
2017-Jun-16 14:28N 43°33' E 010°18'0 0.0
2017-Jun-16 13:28N 43°33' E 010°18'0 0.0
2017-Jun-16 12:55N 43°33' E 010°18'0 0.0
2017-Jun-16 12:28N 43°33' E 010°18'  
Track history (hours):
 
Tides and Currents Weather Stations Pressure Air Temp Water Temp Dewpoint Dewpoint Depression Visibility Wind Speed Wind Dir Waves Ship Positions

MSC Armonia

Operator: Mediterranean Shipping Company

Last reported at 2017-Jun-26 12:00 UTC. Time now 2017-Jun-26 12:04 UTC.
Position N 39°33' E 002°39'.

Length 275 m; draft 6.8 m.

Type: Ship. MMSI: 357281000.

Date/timePositionNaut miles runAvg speedWind from/ knotsBaromVisibWave heightAir tempDewpointWater temp
2017-Jun-26 12:00N 39°33' E 002°39'714.0
2017-Jun-26 11:30N 39°26' E 002°34'612.3
2017-Jun-26 11:00N 39°26' E 002°27'812.8
2017-Jun-26 10:24N 39°31' E 002°18'613.1
2017-Jun-26 09:58N 39°36' E 002°15'813.7
2017-Jun-26 09:21N 39°43' E 002°20'514.0
2017-Jun-26 09:00N 39°47' E 002°23'714.6
2017-Jun-26 08:30N 39°53' E 002°29'714.5
2017-Jun-26 08:00N 39°60' E 002°34'714.6
2017-Jun-26 07:30N 40°06' E 002°39'714.5
2017-Jun-26 07:00N 40°12' E 002°44'714.5
2017-Jun-26 06:30N 40°18' E 002°49'714.4
2017-Jun-26 06:00N 40°24' E 002°54'714.4
2017-Jun-26 05:30N 40°30' E 002°58'714.4
2017-Jun-26 05:00N 40°37' E 003°03'714.6
2017-Jun-26 04:30N 40°43' E 003°09'714.3
2017-Jun-26 04:00N 40°49' E 003°13'714.0
2017-Jun-26 03:30N 40°55' E 003°19'714.0
2017-Jun-26 02:57N 41°01' E 003°24'3914.3
2017-Jun-26 00:14N 41°35' E 003°50'614.6
2017-Jun-25 23:48N 41°40' E 003°55'414.6
2017-Jun-25 23:30N 41°44' E 003°58'714.8
2017-Jun-25 23:00N 41°50' E 004°03'815.0
2017-Jun-25 22:26N 41°57' E 004°09'149 6.5
2017-Jun-24 23:24N 43°12' E 007°03'615.4
2017-Jun-24 23:00N 43°15' E 007°11'815.6
2017-Jun-24 22:30N 43°20' E 007°20'6015.8
2017-Jun-24 18:43N 43°50' E 008°31'316.2
2017-Jun-24 18:30N 43°53' E 008°34'816.1
2017-Jun-24 18:00N 43°59' E 008°40'816.1
2017-Jun-24 17:30N 44°07' E 008°45'816.1
2017-Jun-24 17:00N 44°14' E 008°51'815.7
2017-Jun-24 16:30N 44°21' E 008°55'4 8.1
2017-Jun-24 16:00N 44°25' E 008°55'0 0.1
2017-Jun-24 15:25N 44°25' E 008°55'0 0.0
2017-Jun-24 14:58N 44°25' E 008°55'0 0.0
2017-Jun-24 13:52N 44°25' E 008°55'0 0.0
2017-Jun-24 13:28N 44°25' E 008°55'0 0.0
2017-Jun-24 12:52N 44°25' E 008°55'0 0.0
2017-Jun-24 12:28N 44°25' E 008°55'0 0.0
2017-Jun-24 11:52N 44°25' E 008°55'0 0.0
2017-Jun-24 11:28N 44°25' E 008°55'0 0.0
2017-Jun-24 10:55N 44°25' E 008°55'0 0.0
2017-Jun-24 10:25N 44°25' E 008°55'0 0.0
2017-Jun-24 09:55N 44°25' E 008°55'0 0.0
2017-Jun-24 09:25N 44°25' E 008°55'0 0.0
2017-Jun-24 08:55N 44°25' E 008°55'0 0.0
2017-Jun-24 08:22N 44°25' E 008°55'0 0.0
2017-Jun-24 07:58N 44°25' E 008°55'0 0.0
2017-Jun-24 07:28N 44°25' E 008°55'0 0.0
2017-Jun-24 06:58N 44°25' E 008°55'0 0.0
2017-Jun-24 06:28N 44°25' E 008°55'0 0.0
2017-Jun-24 05:58N 44°25' E 008°55'2 3.6
2017-Jun-24 05:30N 44°23' E 008°56'5 9.8
2017-Jun-24 05:00N 44°19' E 008°59'510.3
2017-Jun-24 04:30N 44°14' E 009°02'5 9.6
2017-Jun-24 04:00N 44°10' E 009°04'5 9.6
2017-Jun-24 03:30N 44°05' E 009°06'5 9.4
2017-Jun-24 03:00N 44°00' E 009°07'4 8.7
2017-Jun-24 02:30N 43°57' E 009°03'4 8.8
2017-Jun-24 02:00N 43°56' E 008°57'4 8.5
2017-Jun-24 01:30N 43°55' E 008°52'4 8.4
2017-Jun-24 01:00N 43°53' E 008°46'4 7.9
2017-Jun-24 00:30N 43°50' E 008°43'5 9.6
2017-Jun-23 23:59N 43°45' E 008°44'510.0
2017-Jun-23 23:30N 43°41' E 008°47'713.4
2017-Jun-23 23:00N 43°36' E 008°53'815.9
2017-Jun-23 22:30N 43°33' E 009°03'816.0
2017-Jun-23 22:00N 43°33' E 009°14'815.2
2017-Jun-23 21:30N 43°33' E 009°25'714.6
2017-Jun-23 21:00N 43°33' E 009°35'612.1
2017-Jun-23 20:30N 43°33' E 009°43'4 7.6
2017-Jun-23 20:00N 43°32' E 009°48'4 7.4
2017-Jun-23 19:30N 43°32' E 009°53'4 7.1
2017-Jun-23 19:01N 43°31' E 009°58'4 7.3
2017-Jun-23 18:31N 43°30' E 010°03'4 7.2
2017-Jun-23 18:00N 43°30' E 010°08'4 7.3
2017-Jun-23 17:30N 43°31' E 010°13'4 7.6
2017-Jun-23 17:00N 43°33' E 010°17'0 0.8
2017-Jun-23 16:30N 43°33' E 010°18'0 0.0
2017-Jun-23 16:00N 43°33' E 010°18'0 0.0
2017-Jun-23 15:30N 43°33' E 010°18'0 0.0
2017-Jun-23 15:00N 43°33' E 010°18'0 0.0
2017-Jun-23 13:54N 43°33' E 010°18'0 0.0
2017-Jun-23 13:30N 43°33' E 010°18'0 0.0
2017-Jun-23 12:51N 43°33' E 010°18'0 0.0
2017-Jun-23 12:30N 43°33' E 010°18'0 0.0
2017-Jun-23 12:00N 43°33' E 010°18'0 0.0
2017-Jun-23 11:30N 43°33' E 010°18'0 0.0
2017-Jun-23 11:00N 43°33' E 010°18'0 0.0
2017-Jun-23 10:30N 43°33' E 010°18'0 0.0
2017-Jun-23 10:00N 43°33' E 010°18'0 0.0
2017-Jun-23 09:30N 43°33' E 010°18'0 0.0
2017-Jun-23 08:57N 43°33' E 010°18'0 0.0
2017-Jun-23 08:30N 43°33' E 010°18'0 0.0
2017-Jun-23 08:00N 43°33' E 010°18'0 0.0
2017-Jun-23 07:30N 43°33' E 010°18'0 0.0
2017-Jun-23 07:00N 43°33' E 010°18'0 0.0
2017-Jun-23 06:30N 43°33' E 010°18'0 0.0
2017-Jun-23 06:00N 43°33' E 010°18'0 0.0
2017-Jun-23 05:30N 43°33' E 010°18'2 4.6
2017-Jun-23 04:57N 43°31' E 010°15'510.0
2017-Jun-23 04:30N 43°27' E 010°12'712.8
2017-Jun-23 03:55N 43°20' E 010°09'512.5
2017-Jun-23 03:31N 43°16' E 010°07'612.9
2017-Jun-23 03:01N 43°09' E 010°04'1212.7
2017-Jun-23 02:03N 42°58' E 009°60'212.7
2017-Jun-23 01:54N 42°56' E 009°59'912.8
2017-Jun-23 01:11N 42°47' E 009°56'313.0
2017-Jun-23 00:55N 42°44' E 009°55'1613.1
2017-Jun-22 23:45N 42°28' E 009°53'812.9
2017-Jun-22 23:06N 42°20' E 009°52'212.9
2017-Jun-22 22:57N 42°18' E 009°52'613.1
2017-Jun-22 22:31N 42°12' E 009°51'713.2
2017-Jun-22 21:57N 42°05' E 009°51'3513.2
2017-Jun-22 19:16N 41°30' E 009°47'413.1
2017-Jun-22 18:59N 41°26' E 009°46'28 2.1
2017-Jun-22 05:37N 40°58' E 009°42'1114.0
2017-Jun-22 04:51N 41°08' E 009°43'6813.7
2017-Jun-21 23:54N 41°11' E 008°13'715.8
2017-Jun-21 23:29N 41°08' E 008°05'23116.1
2017-Jun-21 09:08N 39°19' E 003°38'216.5
2017-Jun-21 09:00N 39°18' E 003°35'816.5
2017-Jun-21 08:30N 39°15' E 003°26'816.5
2017-Jun-21 08:00N 39°11' E 003°16'816.4
2017-Jun-21 07:30N 39°07' E 003°07'816.2
2017-Jun-21 07:00N 39°04' E 002°57'816.1
2017-Jun-21 06:30N 39°03' E 002°47'816.0
2017-Jun-21 06:00N 39°02' E 002°37'815.9
2017-Jun-21 05:30N 39°00' E 002°27'816.1
2017-Jun-21 05:00N 38°59' E 002°17'816.2
2017-Jun-21 04:30N 38°58' E 002°06'816.2
2017-Jun-21 04:00N 38°58' E 001°56'816.2
2017-Jun-21 03:30N 38°56' E 001°46'816.1
2017-Jun-21 03:00N 38°55' E 001°36'6 0.3
2017-Jun-20 05:56N 38°54' E 001°27'4 8.4
2017-Jun-20 05:28N 38°55' E 001°32'4 8.5
2017-Jun-20 05:00N 38°57' E 001°36'5 8.9
2017-Jun-20 04:30N 38°59' E 001°42'4 8.9
2017-Jun-20 04:00N 39°01' E 001°46'4 8.8
2017-Jun-20 03:30N 39°04' E 001°51'4 8.7
2017-Jun-20 03:00N 39°06' E 001°56'4 8.7
2017-Jun-20 02:30N 39°08' E 002°01'4 8.2
2017-Jun-20 02:00N 39°11' E 002°05'4 8.4
2017-Jun-20 01:30N 39°13' E 002°10'4 8.6
2017-Jun-20 01:00N 39°15' E 002°14'4 9.1
2017-Jun-20 00:30N 39°18' E 002°19'611.3
2017-Jun-20 00:00N 39°21' E 002°25'611.7
2017-Jun-19 23:30N 39°25' E 002°31'611.7
2017-Jun-19 23:01N 39°29' E 002°36'5 9.8
2017-Jun-19 22:30N 39°33' E 002°39'0 0.6
2017-Jun-19 21:58N 39°33' E 002°38'0 0.0
2017-Jun-19 21:28N 39°33' E 002°38'0 0.0
2017-Jun-19 20:58N 39°33' E 002°38'0 0.0
2017-Jun-19 20:28N 39°33' E 002°38'0 0.0
2017-Jun-19 19:58N 39°33' E 002°38'0 0.0
2017-Jun-19 19:28N 39°33' E 002°38'0 0.0
2017-Jun-19 18:58N 39°33' E 002°38'0 0.0
2017-Jun-19 18:28N 39°33' E 002°38'0 0.0
2017-Jun-19 17:58N 39°33' E 002°38'0 0.0
2017-Jun-19 17:28N 39°33' E 002°38'0 0.0
2017-Jun-19 16:58N 39°33' E 002°38'0 0.0
2017-Jun-19 16:28N 39°33' E 002°38'0 0.0
2017-Jun-19 15:58N 39°33' E 002°38'0 0.0
2017-Jun-19 15:28N 39°33' E 002°38'0 0.0
2017-Jun-19 14:58N 39°33' E 002°38'0 0.0
2017-Jun-19 14:28N 39°33' E 002°38'0 0.0
2017-Jun-19 13:28N 39°33' E 002°38'0 0.0
2017-Jun-19 13:00N 39°33' E 002°38'0 0.0
2017-Jun-19 12:30N 39°33' E 002°38'1 1.7
2017-Jun-19 12:00N 39°33' E 002°39'714.4
2017-Jun-19 11:30N 39°27' E 002°34'713.1
2017-Jun-19 11:00N 39°26' E 002°25'713.2
2017-Jun-19 10:26N 39°31' E 002°18'612.6
2017-Jun-19 10:00N 39°36' E 002°16'713.7
2017-Jun-19 09:30N 39°42' E 002°20'713.9
2017-Jun-19 09:00N 39°48' E 002°25'714.4
2017-Jun-19 08:30N 39°54' E 002°30'714.2
2017-Jun-19 08:00N 40°01' E 002°35'714.4
2017-Jun-19 07:30N 40°07' E 002°40'714.5
2017-Jun-19 07:00N 40°13' E 002°45'714.6
2017-Jun-19 06:30N 40°19' E 002°49'714.2
2017-Jun-19 06:00N 40°25' E 002°54'714.0
2017-Jun-19 05:30N 40°32' E 002°58'714.1
2017-Jun-19 05:00N 40°37' E 003°04'714.4
2017-Jun-19 04:30N 40°43' E 003°09'814.5
2017-Jun-19 03:57N 40°50' E 003°14'614.2
2017-Jun-19 03:30N 40°56' E 003°19'714.2
2017-Jun-19 03:00N 41°02' E 003°24'913.9
2017-Jun-19 02:21N 41°09' E 003°30'514.3
2017-Jun-19 02:00N 41°14' E 003°33'714.4
2017-Jun-19 01:30N 41°20' E 003°38'714.5
2017-Jun-19 01:00N 41°26' E 003°43'714.5
2017-Jun-19 00:30N 41°32' E 003°49'714.3
2017-Jun-19 00:00N 41°38' E 003°54'1914.2
2017-Jun-18 22:41N 41°54' E 004°07'2114.1
2017-Jun-18 21:11N 42°12' E 004°21'414.2
2017-Jun-18 20:53N 42°16' E 004°24'3114.4
2017-Jun-18 18:42N 42°43' E 004°46'2914.7
2017-Jun-18 16:43N 43°08' E 005°07'11 0.9
2017-Jun-18 04:44N 43°16' E 005°16'7814.2
2017-Jun-17 23:14N 43°12' E 007°03'416.8
2017-Jun-17 23:00N 43°14' E 007°07'1016.7
2017-Jun-17 22:23N 43°19' E 007°19'616.6
2017-Jun-17 22:00N 43°23' E 007°27'4316.5
2017-Jun-17 19:26N 43°44' E 008°17'716.1
2017-Jun-17 19:00N 43°48' E 008°25'815.4
2017-Jun-17 18:30N 43°53' E 008°33'815.7
2017-Jun-17 18:00N 43°60' E 008°39'815.8
2017-Jun-17 17:30N 44°07' E 008°44'815.9
2017-Jun-17 17:00N 44°14' E 008°50'815.8
2017-Jun-17 16:30N 44°20' E 008°55'4 7.7
2017-Jun-17 15:57N 44°25' E 008°55'0 0.0
2017-Jun-17 15:27N 44°25' E 008°55'0 0.0
2017-Jun-17 14:57N 44°25' E 008°55'0 0.0
2017-Jun-17 13:57N 44°25' E 008°55'0 0.0
2017-Jun-17 13:27N 44°25' E 008°55'0 0.0
2017-Jun-17 13:00N 44°25' E 008°55'0 0.0
2017-Jun-17 12:30N 44°25' E 008°55'0 0.0
2017-Jun-17 12:00N 44°25' E 008°55'0 0.0
2017-Jun-17 11:30N 44°25' E 008°55'0 0.0
2017-Jun-17 11:00N 44°25' E 008°55'0 0.0
2017-Jun-17 10:30N 44°25' E 008°55'0 0.0
2017-Jun-17 10:00N 44°25' E 008°55'0 0.0
2017-Jun-17 09:30N 44°25' E 008°55'0 0.0
2017-Jun-17 09:00N 44°25' E 008°55'0 0.0
2017-Jun-17 08:30N 44°25' E 008°55'0 0.0
2017-Jun-17 08:00N 44°25' E 008°55'0 0.0
2017-Jun-17 07:30N 44°25' E 008°55'0 0.0
2017-Jun-17 07:00N 44°25' E 008°55'0 0.0
2017-Jun-17 06:30N 44°25' E 008°55'0 0.0
2017-Jun-17 05:57N 44°25' E 008°55'1 1.3
2017-Jun-17 05:31N 44°24' E 008°55'5 9.2
2017-Jun-17 05:00N 44°20' E 008°59'611.5
2017-Jun-17 04:30N 44°15' E 009°01'611.2
2017-Jun-17 04:00N 44°09' E 009°04'5 9.4
2017-Jun-17 03:30N 44°05' E 009°06'5 9.4
2017-Jun-17 03:00N 44°01' E 009°07'5 9.5
2017-Jun-17 02:30N 43°56' E 009°10'5 9.2
2017-Jun-17 02:00N 43°52' E 009°12'4 8.7
2017-Jun-17 01:30N 43°48' E 009°14'4 8.6
2017-Jun-17 01:00N 43°43' E 009°15'4 8.8
2017-Jun-17 00:30N 43°39' E 009°17'4 8.9
2017-Jun-17 00:00N 43°35' E 009°19'4 7.9
2017-Jun-16 23:30N 43°33' E 009°24'4 8.6
2017-Jun-16 23:00N 43°33' E 009°29'4 8.5
2017-Jun-16 22:30N 43°33' E 009°35'4 8.2
2017-Jun-16 22:00N 43°32' E 009°41'4 8.1
2017-Jun-16 21:30N 43°32' E 009°47'4 8.2
2017-Jun-16 21:00N 43°31' E 009°52'4 8.2
2017-Jun-16 20:30N 43°31' E 009°58'4 8.2
2017-Jun-16 20:00N 43°30' E 010°03'4 8.2
2017-Jun-16 19:30N 43°30' E 010°09'4 8.3
2017-Jun-16 19:00N 43°32' E 010°14'3 5.4
2017-Jun-16 18:28N 43°33' E 010°18'0 0.0
2017-Jun-16 17:58N 43°33' E 010°18'0 0.0
2017-Jun-16 17:28N 43°33' E 010°18'0 0.0
2017-Jun-16 16:58N 43°33' E 010°18'0 0.0
2017-Jun-16 16:28N 43°33' E 010°18'0 0.0
2017-Jun-16 15:58N 43°33' E 010°18'0 0.0
2017-Jun-16 15:28N 43°33' E 010°18'0 0.0
2017-Jun-16 14:58N 43°33' E 010°18'0 0.0
2017-Jun-16 14:28N 43°33' E 010°18'0 0.0
2017-Jun-16 13:28N 43°33' E 010°18'0 0.0
2017-Jun-16 12:55N 43°33' E 010°18'0 0.0
2017-Jun-16 12:28N 43°33' E 010°18'  

Dump ship's entire track history